KRCV

Astronaut Kent Rominger Airport

Del Norte, Colorado, USA
METAR KRCV 201230Z AUTO 21004KT 10SM CLR M07/M13 A2994 RMK AO2 T10711131
Observed Flight Rules
Jan-20 @ 12:30 UTC (38 minutes ago) Visual Flight Rules
Wind Visibility Clouds
210° at 4 knots 10 miles
  • Clear skies
Temperatures Readings
Current -7°C / 19°F
Dewpoint -13°C / 9°F
Humidity 63%
Altimeter 29.94" Hg
Pressure 1014 hPa
Elevation 2424
METAR KRCV 201230Z AUTO 21004KT 10SM CLR M07/M13 A2994 RMK AO2 T10711131
Observed Flight Rules
Jan-20 @ 12:30 UTC
(38 minutes ago)
VFR
Wind Visibility
210° at 4 knots 10 miles
Clouds
  • Clear skies
Temperature Dewpoint
-7°C / 19°F -13°C / 9°F
Humidity Altimeter Pressure
63% 29.94" Hg 1014 hPa